Time,TemperatureF,DewpointF,PressureIn,WindDirection,WindDirectionDegrees,WindSpeedMPH,WindSpeedGustMPH,Humidity,HourlyPrecipIn,Conditions,Clouds,dailyrainin,SoftwareType,DateUTC
2013-03-27 00:11:00,58.0,17.0,30.07,WSW,244,0.0,-999.0,20,-99.99,,,0.00,weatherlink.com 1.10,2013-03-27 07:11:00,
2013-03-27 00:26:00,57.7,17.0,30.06,WSW,251,0.0,-999.0,20,-99.99,,,0.00,weatherlink.com 1.10,2013-03-27 07:26:00,
2013-03-27 00:46:00,57.5,17.0,30.05,WSW,248,0.0,-999.0,20,-99.99,,,0.00,weatherlink.com 1.10,2013-03-27 07:46:00,
2013-03-27 00:56:00,56.9,17.0,30.05,WSW,248,0.0,-999.0,21,-99.99,,,0.00,weatherlink.com 1.10,2013-03-27 07:56:00,
2013-03-27 01:27:00,53.1,17.0,30.05,WSW,248,0.0,-999.0,24,-99.99,,,0.00,weatherlink.com 1.10,2013-03-27 08:27:00,
2013-03-27 01:47:00,51.9,18.0,30.04,WSW,248,0.0,-999.0,26,-99.99,,,0.00,weatherlink.com 1.10,2013-03-27 08:47:00,
2013-03-27 01:59:00,49.4,17.0,30.04,WSW,248,1.0,-999.0,28,-99.99,,,0.00,weatherlink.com 1.10,2013-03-27 08:59:00,
2013-03-27 02:12:00,47.6,18.0,30.04,WSW,248,1.0,-999.0,31,-99.99,,,0.00,weatherlink.com 1.10,2013-03-27 09:12:00,
2013-03-27 02:27:00,47.0,18.0,30.04,WSW,248,0.0,-999.0,31,-99.99,,,0.00,weatherlink.com 1.10,2013-03-27 09:27:00,
2013-03-27 02:57:00,46.9,18.0,30.03,WSW,248,0.0,-999.0,31,-99.99,,,0.00,weatherlink.com 1.10,2013-03-27 09:57:00,
2013-03-27 03:12:00,46.8,17.0,30.03,WSW,248,0.0,-999.0,31,-99.99,,,0.00,weatherlink.com 1.10,2013-03-27 10:12:00,
2013-03-27 03:27:00,46.3,18.0,30.03,WSW,248,0.0,-999.0,32,-99.99,,,0.00,weatherlink.com 1.10,2013-03-27 10:27:00,
2013-03-27 03:47:00,46.1,18.0,30.03,WSW,248,0.0,-999.0,33,-99.99,,,0.00,weatherlink.com 1.10,2013-03-27 10:47:00,
2013-03-27 03:57:00,46.7,18.0,30.03,WSW,248,0.0,-999.0,32,-99.99,,,0.00,weatherlink.com 1.10,2013-03-27 10:57:00,
2013-03-27 04:12:00,48.0,18.0,30.03,WSW,248,0.0,-999.0,30,-99.99,,,0.00,weatherlink.com 1.10,2013-03-27 11:12:00,
2013-03-27 04:27:00,48.4,19.0,30.04,WSW,248,0.0,-999.0,31,-99.99,,,0.00,weatherlink.com 1.10,2013-03-27 11:27:00,
2013-03-27 04:47:00,48.4,18.0,30.04,WSW,248,0.0,-999.0,30,-99.99,,,0.00,weatherlink.com 1.10,2013-03-27 11:47:00,
2013-03-27 04:57:00,48.0,19.0,30.04,WSW,248,0.0,-999.0,31,-99.99,,,0.00,weatherlink.com 1.10,2013-03-27 11:57:00,
2013-03-27 05:12:00,47.6,19.0,30.04,WSW,248,0.0,-999.0,32,-99.99,,,0.00,weatherlink.com 1.10,2013-03-27 12:12:00,
2013-03-27 05:27:00,47.9,19.0,30.05,WSW,248,0.0,-999.0,32,-99.99,,,0.00,weatherlink.com 1.10,2013-03-27 12:27:00,
2013-03-27 05:42:00,47.3,19.0,30.04,WSW,248,0.0,-999.0,33,-99.99,,,0.00,weatherlink.com 1.10,2013-03-27 12:42:00,
2013-03-27 06:12:00,46.5,19.0,30.05,WSW,248,0.0,-999.0,34,-99.99,,,0.00,weatherlink.com 1.10,2013-03-27 13:12:00,
2013-03-27 06:27:00,46.2,18.0,30.06,WSW,248,0.0,-999.0,33,-99.99,,,0.00,weatherlink.com 1.10,2013-03-27 13:27:00,
2013-03-27 06:47:00,46.3,18.0,30.06,WSW,248,0.0,-999.0,33,-99.99,,,0.00,weatherlink.com 1.10,2013-03-27 13:47:00,
2013-03-27 07:12:00,52.7,18.0,30.07,South,180,0.0,-999.0,26,-99.99,,,0.00,weatherlink.com 1.10,2013-03-27 14:12:00,
2013-03-27 07:27:00,53.9,19.0,30.07,South,180,0.0,-999.0,25,-99.99,,,0.00,weatherlink.com 1.10,2013-03-27 14:27:00,
2013-03-27 07:47:00,55.5,19.0,30.07,SE,138,6.0,-999.0,24,-99.99,,,0.00,weatherlink.com 1.10,2013-03-27 14:47:00,
2013-03-27 07:56:00,57.1,20.0,30.08,SE,141,2.0,-999.0,24,-99.99,,,0.00,weatherlink.com 1.10,2013-03-27 14:56:00,
2013-03-27 08:11:00,59.0,21.0,30.08,South,169,1.0,-999.0,23,-99.99,,,0.00,weatherlink.com 1.10,2013-03-27 15:11:00,
2013-03-27 08:26:00,61.3,21.0,30.08,SE,127,0.0,-999.0,21,-99.99,,,0.00,weatherlink.com 1.10,2013-03-27 15:26:00,
2013-03-27 08:47:00,62.6,22.0,30.08,SSE,147,4.0,-999.0,21,-99.99,,,0.00,weatherlink.com 1.10,2013-03-27 15:47:00,
2013-03-27 08:57:00,62.8,21.0,30.09,SE,128,1.0,-999.0,20,-99.99,,,0.00,weatherlink.com 1.10,2013-03-27 15:57:00,
2013-03-27 09:12:00,63.6,22.0,30.09,SSE,165,1.0,-999.0,20,-99.99,,,0.00,weatherlink.com 1.10,2013-03-27 16:12:00,
2013-03-27 09:28:00,64.5,21.0,30.09,SSW,192,0.0,-999.0,19,-99.99,,,0.00,weatherlink.com 1.10,2013-03-27 16:28:00,
2013-03-27 09:47:00,64.9,20.0,30.09,SE,134,1.0,-999.0,18,-99.99,,,0.00,weatherlink.com 1.10,2013-03-27 16:47:00,
2013-03-27 09:57:00,66.4,16.0,30.09,SSE,157,1.0,-999.0,14,-99.99,,,0.00,weatherlink.com 1.10,2013-03-27 16:57:00,
2013-03-27 10:12:00,66.7,14.0,30.08,West,267,0.0,-999.0,13,-99.99,,,0.00,weatherlink.com 1.10,2013-03-27 17:12:00,
2013-03-27 10:27:00,68.0,11.0,30.08,WNW,287,4.0,-999.0,11,-99.99,,,0.00,weatherlink.com 1.10,2013-03-27 17:27:00,
2013-03-27 10:48:00,68.9,12.0,30.09,East,99,4.0,-999.0,11,-99.99,,,0.00,weatherlink.com 1.10,2013-03-27 17:48:00,
2013-03-27 10:57:00,69.1,14.0,30.07,ESE,115,2.0,-999.0,12,-99.99,,,0.00,weatherlink.com 1.10,2013-03-27 17:57:00,
2013-03-27 11:12:00,68.8,16.0,30.08,SE,127,5.0,-999.0,13,-99.99,,,0.00,weatherlink.com 1.10,2013-03-27 18:12:00,
2013-03-27 11:27:00,69.3,14.0,30.08,SW,221,2.0,-999.0,12,-99.99,,,0.00,weatherlink.com 1.10,2013-03-27 18:27:00,
2013-03-27 11:48:00,70.3,17.0,30.07,WNW,284,2.0,-999.0,13,-99.99,,,0.00,weatherlink.com 1.10,2013-03-27 18:48:00,
2013-03-27 11:57:00,68.9,16.0,30.08,West,263,7.0,-999.0,13,-99.99,,,0.00,weatherlink.com 1.10,2013-03-27 18:57:00,
2013-03-27 12:12:00,69.4,18.0,30.07,West,259,1.0,-999.0,14,-99.99,,,0.00,weatherlink.com 1.10,2013-03-27 19:12:00,
2013-03-27 12:27:00,68.8,18.0,30.07,SE,143,0.0,-999.0,14,-99.99,,,0.00,weatherlink.com 1.10,2013-03-27 19:27:00,
2013-03-27 12:48:00,68.4,17.0,30.07,West,271,1.0,-999.0,14,-99.99,,,0.00,weatherlink.com 1.10,2013-03-27 19:48:00,
2013-03-27 12:57:00,70.3,17.0,30.06,West,262,7.0,-999.0,13,-99.99,,,0.00,weatherlink.com 1.10,2013-03-27 19:57:00,
2013-03-27 13:12:00,69.9,18.0,30.05,ESE,114,0.0,-999.0,14,-99.99,,,0.00,weatherlink.com 1.10,2013-03-27 20:12:00,
2013-03-27 13:27:00,71.2,18.0,30.04,SE,142,0.0,-999.0,13,-99.99,,,0.00,weatherlink.com 1.10,2013-03-27 20:27:00,
2013-03-27 13:48:00,69.7,18.0,30.05,West,259,8.0,-999.0,14,-99.99,,,0.00,weatherlink.com 1.10,2013-03-27 20:48:00,
2013-03-27 13:57:00,70.3,19.0,30.03,WNW,284,1.0,-999.0,14,-99.99,,,0.00,weatherlink.com 1.10,2013-03-27 20:57:00,
2013-03-27 14:12:00,72.1,19.0,30.04,SW,236,1.0,-999.0,13,-99.99,,,0.00,weatherlink.com 1.10,2013-03-27 21:12:00,
2013-03-27 14:27:00,71.3,20.0,30.02,SE,128,1.0,-999.0,14,-99.99,,,0.00,weatherlink.com 1.10,2013-03-27 21:27:00,
2013-03-27 14:48:00,71.0,18.0,30.03,NW,313,0.0,-999.0,13,-99.99,,,0.00,weatherlink.com 1.10,2013-03-27 21:48:00,
2013-03-27 14:57:00,71.0,19.0,30.02,South,191,1.0,-999.0,14,-99.99,,,0.00,weatherlink.com 1.10,2013-03-27 21:57:00,
2013-03-27 15:12:00,70.9,19.0,30.03,South,188,0.0,-999.0,14,-99.99,,,0.00,weatherlink.com 1.10,2013-03-27 22:12:00,
2013-03-27 15:27:00,70.0,20.0,30.02,NNW,340,4.0,-999.0,15,-99.99,,,0.00,weatherlink.com 1.10,2013-03-27 22:27:00,
2013-03-27 15:48:00,70.0,20.0,30.02,South,183,0.0,-999.0,15,-99.99,,,0.00,weatherlink.com 1.10,2013-03-27 22:48:00,
2013-03-27 15:57:00,69.3,16.0,30.02,South,191,0.0,-999.0,13,-99.99,,,0.00,weatherlink.com 1.10,2013-03-27 22:57:00,
2013-03-27 16:12:00,68.6,19.0,30.02,West,277,0.0,-999.0,15,-99.99,,,0.00,weatherlink.com 1.10,2013-03-27 23:12:00,
2013-03-27 16:27:00,68.2,22.0,30.02,SW,225,2.0,-999.0,17,-99.99,,,0.00,weatherlink.com 1.10,2013-03-27 23:27:00,
2013-03-27 16:48:00,67.8,21.0,30.02,South,182,0.0,-999.0,17,-99.99,,,0.00,weatherlink.com 1.10,2013-03-27 23:48:00,
2013-03-27 16:58:00,67.4,21.0,30.02,SSW,212,0.0,-999.0,17,-99.99,,,0.00,weatherlink.com 1.10,2013-03-27 23:58:00,
2013-03-27 17:13:00,66.8,22.0,30.02,WSW,241,2.0,-999.0,18,-99.99,,,0.00,weatherlink.com 1.10,2013-03-28 00:13:00,
2013-03-27 17:28:00,66.6,23.0,30.02,WSW,243,0.0,-999.0,19,-99.99,,,0.00,weatherlink.com 1.10,2013-03-28 00:28:00,
2013-03-27 17:48:00,66.2,24.0,30.03,SW,225,0.0,-999.0,20,-99.99,,,0.00,weatherlink.com 1.10,2013-03-28 00:48:00,
2013-03-27 17:58:00,65.5,24.0,30.02,West,268,0.0,-999.0,21,-99.99,,,0.00,weatherlink.com 1.10,2013-03-28 00:58:00,
2013-03-27 18:13:00,64.4,22.0,30.03,West,265,0.0,-999.0,20,-99.99,,,0.00,weatherlink.com 1.10,2013-03-28 01:13:00,
2013-03-27 18:28:00,63.4,23.0,30.04,West,265,0.0,-999.0,21,-99.99,,,0.00,weatherlink.com 1.10,2013-03-28 01:28:00,
2013-03-27 18:48:00,62.7,21.0,30.04,West,259,0.0,-999.0,20,-99.99,,,0.00,weatherlink.com 1.10,2013-03-28 01:48:00,
2013-03-27 18:58:00,62.7,23.0,30.04,SW,228,0.0,-999.0,22,-99.99,,,0.00,weatherlink.com 1.10,2013-03-28 01:58:00,
2013-03-27 19:13:00,62.7,23.0,30.04,SE,132,1.0,-999.0,22,-99.99,,,0.00,weatherlink.com 1.10,2013-03-28 02:13:00,
2013-03-27 19:28:00,62.7,23.0,30.05,WSW,253,0.0,-999.0,22,-99.99,,,0.00,weatherlink.com 1.10,2013-03-28 02:28:00,
2013-03-27 19:48:00,62.5,23.0,30.06,West,279,0.0,-999.0,22,-99.99,,,0.00,weatherlink.com 1.10,2013-03-28 02:48:00,
2013-03-27 19:58:00,62.3,24.0,30.07,WNW,283,0.0,-999.0,23,-99.99,,,0.00,weatherlink.com 1.10,2013-03-28 02:58:00,
2013-03-27 20:13:00,62.2,25.0,30.07,WNW,292,0.0,-999.0,24,-99.99,,,0.00,weatherlink.com 1.10,2013-03-28 03:13:00,
2013-03-27 20:29:00,61.6,24.0,30.07,WSW,243,0.0,-999.0,24,-99.99,,,0.00,weatherlink.com 1.10,2013-03-28 03:29:00,
2013-03-27 20:48:00,61.4,25.0,30.09,WSW,250,7.0,-999.0,25,-99.99,,,0.00,weatherlink.com 1.10,2013-03-28 03:48:00,
2013-03-27 20:58:00,61.2,26.0,30.09,WSW,246,3.0,-999.0,26,-99.99,,,0.00,weatherlink.com 1.10,2013-03-28 03:58:00,
2013-03-27 21:13:00,61.3,26.0,30.09,WNW,292,0.0,-999.0,26,-99.99,,,0.00,weatherlink.com 1.10,2013-03-28 04:13:00,
2013-03-27 21:28:00,60.9,26.0,30.10,West,265,1.0,-999.0,26,-99.99,,,0.00,weatherlink.com 1.10,2013-03-28 04:28:00,
2013-03-27 21:48:00,60.6,26.0,30.10,WSW,250,0.0,-999.0,27,-99.99,,,0.00,weatherlink.com 1.10,2013-03-28 04:48:00,
2013-03-27 21:58:00,60.0,26.0,30.11,WSW,245,0.0,-999.0,27,-99.99,,,0.00,weatherlink.com 1.10,2013-03-28 04:58:00,
2013-03-27 22:13:00,59.9,26.0,30.10,West,276,0.0,-999.0,27,-99.99,,,0.00,weatherlink.com 1.10,2013-03-28 05:13:00,
2013-03-27 22:28:00,59.7,25.0,30.11,WNW,288,1.0,-999.0,27,-99.99,,,0.00,weatherlink.com 1.10,2013-03-28 05:28:00,
2013-03-27 22:48:00,59.4,26.0,30.11,WSW,240,0.0,-999.0,28,-99.99,,,0.00,weatherlink.com 1.10,2013-03-28 05:48:00,
2013-03-27 22:58:00,59.2,27.0,30.11,SW,232,2.0,-999.0,29,-99.99,,,0.00,weatherlink.com 1.10,2013-03-28 05:58:00,
2013-03-27 23:13:00,58.8,26.0,30.11,West,265,0.0,-999.0,29,-99.99,,,0.00,weatherlink.com 1.10,2013-03-28 06:13:00,
2013-03-27 23:28:00,58.0,27.0,30.11,West,271,0.0,-999.0,30,-99.99,,,0.00,weatherlink.com 1.10,2013-03-28 06:28:00,
2013-03-27 23:48:00,57.5,28.0,30.11,WSW,253,3.0,-999.0,32,-99.99,,,0.00,weatherlink.com 1.10,2013-03-28 06:48:00,
2013-03-27 23:58:00,57.5,28.0,30.11,West,263,0.0,-999.0,33,-99.99,,,0.00,weatherlink.com 1.10,2013-03-28 06:58:00,